sensor_id;sensor_type;location;lat;lon;timestamp;pressure;altitude;pressure_sealevel;temperature;humidity
19736;BME280;32064;49.310;8.646;2024-01-16T00:01:15;99981.03;;;4.36;58.57
19736;BME280;32064;49.310;8.646;2024-01-16T00:03:41;99985.41;;;4.35;57.78
19736;BME280;32064;49.310;8.646;2024-01-16T00:06:07;99994.13;;;4.34;59.13
19736;BME280;32064;49.310;8.646;2024-01-16T00:08:32;99989.00;;;4.33;58.66
19736;BME280;32064;49.310;8.646;2024-01-16T00:10:58;99993.81;;;4.40;57.77
19736;BME280;32064;49.310;8.646;2024-01-16T00:13:23;99999.50;;;4.31;59.54
19736;BME280;32064;49.310;8.646;2024-01-16T00:15:49;100002.72;;;4.36;59.62
19736;BME280;32064;49.310;8.646;2024-01-16T00:18:15;100008.59;;;4.40;57.85
19736;BME280;32064;49.310;8.646;2024-01-16T00:20:40;100009.53;;;4.39;58.76
19736;BME280;32064;49.310;8.646;2024-01-16T00:23:06;100015.91;;;4.33;59.48
19736;BME280;32064;49.310;8.646;2024-01-16T00:25:31;100019.25;;;4.35;59.39
19736;BME280;32064;49.310;8.646;2024-01-16T00:27:56;100011.38;;;4.37;59.34
19736;BME280;32064;49.310;8.646;2024-01-16T00:30:22;100010.91;;;4.28;59.14
19736;BME280;32064;49.310;8.646;2024-01-16T00:32:47;100019.03;;;4.40;58.61
19736;BME280;32064;49.310;8.646;2024-01-16T00:35:15;100019.03;;;4.40;58.08
19736;BME280;32064;49.310;8.646;2024-01-16T00:37:41;100015.81;;;4.35;57.70
19736;BME280;32064;49.310;8.646;2024-01-16T00:40:07;100016.47;;;4.38;58.05
19736;BME280;32064;49.310;8.646;2024-01-16T00:42:34;100017.72;;;4.31;58.42
19736;BME280;32064;49.310;8.646;2024-01-16T00:45:00;100016.34;;;4.24;58.58
19736;BME280;32064;49.310;8.646;2024-01-16T00:47:25;100027.88;;;4.36;59.09
19736;BME280;32064;49.310;8.646;2024-01-16T00:49:50;100033.09;;;4.36;58.40
19736;BME280;32064;49.310;8.646;2024-01-16T00:52:16;100038.00;;;4.24;58.94
19736;BME280;32064;49.310;8.646;2024-01-16T00:54:43;100038.88;;;4.25;59.91
19736;BME280;32064;49.310;8.646;2024-01-16T00:57:08;100051.56;;;4.31;59.53
19736;BME280;32064;49.310;8.646;2024-01-16T00:59:33;100054.34;;;4.28;59.59
19736;BME280;32064;49.310;8.646;2024-01-16T01:01:59;100045.53;;;4.31;58.67
19736;BME280;32064;49.310;8.646;2024-01-16T01:04:24;100052.25;;;4.35;58.19
19736;BME280;32064;49.310;8.646;2024-01-16T01:06:50;100060.00;;;4.36;58.69
19736;BME280;32064;49.310;8.646;2024-01-16T01:09:16;100059.84;;;4.39;59.19
19736;BME280;32064;49.310;8.646;2024-01-16T01:11:42;100062.19;;;4.44;57.55
19736;BME280;32064;49.310;8.646;2024-01-16T01:14:07;100069.56;;;4.36;57.72
19736;BME280;32064;49.310;8.646;2024-01-16T01:16:33;100056.25;;;4.42;59.36
19736;BME280;32064;49.310;8.646;2024-01-16T01:18:58;100054.31;;;4.45;57.81
19736;BME280;32064;49.310;8.646;2024-01-16T01:21:24;100053.50;;;4.45;57.75
19736;BME280;32064;49.310;8.646;2024-01-16T01:23:49;100057.81;;;4.44;59.35
19736;BME280;32064;49.310;8.646;2024-01-16T01:26:14;100049.44;;;4.39;58.74
19736;BME280;32064;49.310;8.646;2024-01-16T01:28:43;100045.44;;;4.32;58.85
19736;BME280;32064;49.310;8.646;2024-01-16T01:31:10;100053.88;;;4.20;59.76
19736;BME280;32064;49.310;8.646;2024-01-16T01:33:35;100048.28;;;4.27;59.71
19736;BME280;32064;49.310;8.646;2024-01-16T01:36:01;100055.00;;;4.32;57.96
19736;BME280;32064;49.310;8.646;2024-01-16T01:38:26;100052.56;;;4.28;58.66
19736;BME280;32064;49.310;8.646;2024-01-16T01:40:51;100049.66;;;4.35;59.09
19736;BME280;32064;49.310;8.646;2024-01-16T01:43:21;100054.78;;;4.36;58.60
19736;BME280;32064;49.310;8.646;2024-01-16T01:48:37;100052.78;;;4.41;58.98
19736;BME280;32064;49.310;8.646;2024-01-16T01:51:04;100048.50;;;4.40;58.27
19736;BME280;32064;49.310;8.646;2024-01-16T01:53:31;100043.59;;;4.34;58.45
19736;BME280;32064;49.310;8.646;2024-01-16T01:55:58;100054.78;;;4.36;58.28
19736;BME280;32064;49.310;8.646;2024-01-16T01:58:24;100055.69;;;4.35;59.11
19736;BME280;32064;49.310;8.646;2024-01-16T02:00:50;100066.56;;;4.26;59.50
19736;BME280;32064;49.310;8.646;2024-01-16T02:03:15;100067.50;;;4.25;57.98
19736;BME280;32064;49.310;8.646;2024-01-16T02:05:42;100080.72;;;4.20;58.07
19736;BME280;32064;49.310;8.646;2024-01-16T02:08:07;100084.19;;;4.21;58.78
19736;BME280;32064;49.310;8.646;2024-01-16T02:10:35;100079.97;;;4.18;59.73
19736;BME280;32064;49.310;8.646;2024-01-16T02:13:02;100085.31;;;4.15;59.83
19736;BME280;32064;49.310;8.646;2024-01-16T02:15:28;100085.41;;;4.14;58.34
19736;BME280;32064;49.310;8.646;2024-01-16T02:17:54;100080.09;;;4.15;58.69
19736;BME280;32064;49.310;8.646;2024-01-16T02:20:19;100080.72;;;4.20;59.59
19736;BME280;32064;49.310;8.646;2024-01-16T02:22:47;100084.13;;;4.22;59.36
19736;BME280;32064;49.310;8.646;2024-01-16T02:25:16;100090.47;;;4.17;58.18
19736;BME280;32064;49.310;8.646;2024-01-16T02:27:41;100091.50;;;4.13;58.70
19736;BME280;32064;49.310;8.646;2024-01-16T02:30:07;100087.44;;;4.07;59.21
19736;BME280;32064;49.310;8.646;2024-01-16T02:32:32;100085.84;;;4.04;59.76
19736;BME280;32064;49.310;8.646;2024-01-16T02:34:58;100090.34;;;4.01;59.11
19736;BME280;32064;49.310;8.646;2024-01-16T02:37:23;100088.59;;;4.01;59.12
19736;BME280;32064;49.310;8.646;2024-01-16T02:39:49;100090.97;;;4.06;60.23
19736;BME280;32064;49.310;8.646;2024-01-16T02:42:14;100076.88;;;4.10;60.18
19736;BME280;32064;49.310;8.646;2024-01-16T02:44:40;100080.41;;;4.09;59.84
19736;BME280;32064;49.310;8.646;2024-01-16T02:47:05;100072.13;;;4.01;59.83
19736;BME280;32064;49.310;8.646;2024-01-16T02:49:32;100070.91;;;3.91;59.20
19736;BME280;32064;49.310;8.646;2024-01-16T02:51:58;100063.53;;;3.81;59.78
19736;BME280;32064;49.310;8.646;2024-01-16T02:54:23;100063.31;;;3.86;59.47
19736;BME280;32064;49.310;8.646;2024-01-16T02:56:49;100076.84;;;3.93;59.00
19736;BME280;32064;49.310;8.646;2024-01-16T02:59:15;100074.25;;;3.93;59.15
19736;BME280;32064;49.310;8.646;2024-01-16T03:01:40;100068.75;;;3.99;58.81
19736;BME280;32064;49.310;8.646;2024-01-16T03:04:06;100072.28;;;3.98;59.10
19736;BME280;32064;49.310;8.646;2024-01-16T03:06:31;100072.28;;;3.98;58.69
19736;BME280;32064;49.310;8.646;2024-01-16T03:08:57;100073.84;;;4.02;59.57
19736;BME280;32064;49.310;8.646;2024-01-16T03:11:22;100082.19;;;4.09;59.71
19736;BME280;32064;49.310;8.646;2024-01-16T03:13:47;100075.84;;;4.14;57.84
19736;BME280;32064;49.310;8.646;2024-01-16T03:16:14;100088.84;;;4.14;58.43
19736;BME280;32064;49.310;8.646;2024-01-16T03:18:41;100084.63;;;4.12;59.03
19736;BME280;32064;49.310;8.646;2024-01-16T03:21:06;100087.44;;;4.07;59.29
19736;BME280;32064;49.310;8.646;2024-01-16T03:23:31;100086.84;;;4.02;59.07
19736;BME280;32064;49.310;8.646;2024-01-16T03:25:57;100091.34;;;3.98;59.23
19736;BME280;32064;49.310;8.646;2024-01-16T03:28:23;100098.16;;;4.01;59.46
19736;BME280;32064;49.310;8.646;2024-01-16T03:30:48;100088.72;;;3.98;58.48
19736;BME280;32064;49.310;8.646;2024-01-16T03:33:14;100083.00;;;3.92;59.43
19736;BME280;32064;49.310;8.646;2024-01-16T03:35:39;100088.19;;;3.92;58.57
19736;BME280;32064;49.310;8.646;2024-01-16T03:38:04;100093.47;;;3.90;59.47
19736;BME280;32064;49.310;8.646;2024-01-16T03:40:30;100095.84;;;3.95;58.45
19736;BME280;32064;49.310;8.646;2024-01-16T03:43:02;100097.03;;;3.88;59.01
19736;BME280;32064;49.310;8.646;2024-01-16T03:45:27;100094.09;;;3.95;58.56
19736;BME280;32064;49.310;8.646;2024-01-16T03:47:53;100089.19;;;3.89;59.06
19736;BME280;32064;49.310;8.646;2024-01-16T03:50:18;100089.38;;;3.85;58.05
19736;BME280;32064;49.310;8.646;2024-01-16T03:52:43;100093.06;;;3.80;58.96
19736;BME280;32064;49.310;8.646;2024-01-16T03:55:09;100082.94;;;3.74;59.05
19736;BME280;32064;49.310;8.646;2024-01-16T03:57:34;100078.44;;;3.78;58.77
19736;BME280;32064;49.310;8.646;2024-01-16T04:00:00;100075.34;;;3.70;59.32
19736;BME280;32064;49.310;8.646;2024-01-16T04:02:25;100083.84;;;3.73;59.37
19736;BME280;32064;49.310;8.646;2024-01-16T04:04:50;100084.56;;;3.77;59.08
19736;BME280;32064;49.310;8.646;2024-01-16T04:07:15;100086.31;;;3.76;58.45
19736;BME280;32064;49.310;8.646;2024-01-16T04:09:42;100088.84;;;3.78;58.63
19736;BME280;32064;49.310;8.646;2024-01-16T04:12:08;100089.91;;;3.74;58.72
19736;BME280;32064;49.310;8.646;2024-01-16T04:14:33;100084.00;;;3.70;57.29
19736;BME280;32064;49.310;8.646;2024-01-16T04:16:59;100090.91;;;3.71;58.25
19736;BME280;32064;49.310;8.646;2024-01-16T04:19:24;100088.66;;;3.64;58.87
19736;BME280;32064;49.310;8.646;2024-01-16T04:21:50;100092.88;;;3.66;59.15
19736;BME280;32064;49.310;8.646;2024-01-16T04:24:15;100088.44;;;3.68;57.79
19736;BME280;32064;49.310;8.646;2024-01-16T04:26:40;100089.28;;;3.69;58.18
19736;BME280;32064;49.310;8.646;2024-01-16T04:29:06;100083.09;;;3.71;59.58
19736;BME280;32064;49.310;8.646;2024-01-16T04:31:39;100084.97;;;3.68;58.76
19736;BME280;32064;49.310;8.646;2024-01-16T04:34:06;100078.16;;;3.65;58.31
19736;BME280;32064;49.310;8.646;2024-01-16T04:36:31;100080.75;;;3.65;58.63
19736;BME280;32064;49.310;8.646;2024-01-16T04:38:57;100080.91;;;3.62;58.38
19736;BME280;32064;49.310;8.646;2024-01-16T04:41:22;100073.69;;;3.69;58.75
19736;BME280;32064;49.310;8.646;2024-01-16T04:43:47;100080.69;;;3.67;59.40
19736;BME280;32064;49.310;8.646;2024-01-16T04:46:15;100081.38;;;3.70;59.54
19736;BME280;32064;49.310;8.646;2024-01-16T04:48:41;100078.72;;;3.72;59.71
19736;BME280;32064;49.310;8.646;2024-01-16T04:51:06;100077.13;;;3.69;59.38
19736;BME280;32064;49.310;8.646;2024-01-16T04:53:33;100083.31;;;3.67;58.66
19736;BME280;32064;49.310;8.646;2024-01-16T04:55:58;100082.47;;;3.66;59.28
19736;BME280;32064;49.310;8.646;2024-01-16T04:58:24;100075.84;;;3.59;59.06
19736;BME280;32064;49.310;8.646;2024-01-16T05:00:52;100070.09;;;3.52;59.61
19736;BME280;32064;49.310;8.646;2024-01-16T05:03:17;100075.25;;;3.54;58.87
19736;BME280;32064;49.310;8.646;2024-01-16T05:05:42;100071.16;;;3.48;59.24
19736;BME280;32064;49.310;8.646;2024-01-16T05:08:08;100072.69;;;3.52;59.06
19736;BME280;32064;49.310;8.646;2024-01-16T05:10:34;100071.72;;;3.55;59.50
19736;BME280;32064;49.310;8.646;2024-01-16T05:12:59;100070.66;;;3.59;59.53
19736;BME280;32064;49.310;8.646;2024-01-16T05:15:24;100062.31;;;3.52;59.50
19736;BME280;32064;49.310;8.646;2024-01-16T05:17:50;100069.03;;;3.56;58.12
19736;BME280;32064;49.310;8.646;2024-01-16T05:20:15;100061.53;;;3.50;59.65
19736;BME280;32064;49.310;8.646;2024-01-16T05:22:41;100055.97;;;3.58;58.54
19736;BME280;32064;49.310;8.646;2024-01-16T05:25:06;100059.06;;;3.66;59.51
19736;BME280;32064;49.310;8.646;2024-01-16T05:27:35;100057.28;;;3.67;58.81
19736;BME280;32064;49.310;8.646;2024-01-16T05:30:00;100049.94;;;3.57;58.30
19736;BME280;32064;49.310;8.646;2024-01-16T05:32:26;100050.00;;;3.56;58.32
19736;BME280;32064;49.310;8.646;2024-01-16T05:34:52;100048.22;;;3.56;58.29
19736;BME280;32064;49.310;8.646;2024-01-16T05:37:18;100039.44;;;3.59;59.04
19736;BME280;32064;49.310;8.646;2024-01-16T05:39:44;100044.94;;;3.53;58.63
19736;BME280;32064;49.310;8.646;2024-01-16T05:42:09;100034.53;;;3.53;59.01
19736;BME280;32064;49.310;8.646;2024-01-16T05:44:36;100035.59;;;3.49;58.67
19736;BME280;32064;49.310;8.646;2024-01-16T05:47:02;100032.66;;;3.37;59.47
19736;BME280;32064;49.310;8.646;2024-01-16T05:49:27;100026.41;;;3.42;58.92
19736;BME280;32064;49.310;8.646;2024-01-16T05:51:52;100032.44;;;3.42;58.36
19736;BME280;32064;49.310;8.646;2024-01-16T05:54:18;100028.69;;;3.48;58.55
19736;BME280;32064;49.310;8.646;2024-01-16T05:56:43;100025.94;;;3.51;58.04
19736;BME280;32064;49.310;8.646;2024-01-16T05:59:09;100027.72;;;3.50;59.01
19736;BME280;32064;49.310;8.646;2024-01-16T06:01:37;100035.47;;;3.52;57.97
19736;BME280;32064;49.310;8.646;2024-01-16T06:04:03;100025.84;;;3.54;58.21
19736;BME280;32064;49.310;8.646;2024-01-16T06:06:28;100021.47;;;3.54;58.22
19736;BME280;32064;49.310;8.646;2024-01-16T06:08:54;100021.53;;;3.53;58.28
19736;BME280;32064;49.310;8.646;2024-01-16T06:11:30;100030.41;;;3.49;59.71
19736;BME280;32064;49.310;8.646;2024-01-16T06:13:55;100028.50;;;3.52;58.94
19736;BME280;32064;49.310;8.646;2024-01-16T06:16:21;100027.50;;;3.55;58.97
19736;BME280;32064;49.310;8.646;2024-01-16T06:18:46;100030.25;;;3.52;59.67
19736;BME280;32064;49.310;8.646;2024-01-16T06:21:11;100031.03;;;3.54;58.44
19736;BME280;32064;49.310;8.646;2024-01-16T06:23:37;100020.53;;;3.55;58.84
19736;BME280;32064;49.310;8.646;2024-01-16T06:26:02;100028.19;;;3.58;59.72
19736;BME280;32064;49.310;8.646;2024-01-16T06:28:28;100024.06;;;3.54;58.61
19736;BME280;32064;49.310;8.646;2024-01-16T06:30:54;100025.69;;;3.57;58.48
19736;BME280;32064;49.310;8.646;2024-01-16T06:33:19;100027.16;;;3.63;59.29
19736;BME280;32064;49.310;8.646;2024-01-16T06:35:44;100030.31;;;3.69;59.51
19736;BME280;32064;49.310;8.646;2024-01-16T06:38:11;100024.16;;;3.70;58.68
19736;BME280;32064;49.310;8.646;2024-01-16T06:40:36;100025.00;;;3.71;59.54
19736;BME280;32064;49.310;8.646;2024-01-16T06:43:02;100032.91;;;3.69;59.72
19736;BME280;32064;49.310;8.646;2024-01-16T06:45:27;100024.13;;;3.72;58.46
19736;BME280;32064;49.310;8.646;2024-01-16T06:47:52;100027.16;;;3.63;59.44
19736;BME280;32064;49.310;8.646;2024-01-16T06:50:18;100025.31;;;3.65;59.29
19736;BME280;32064;49.310;8.646;2024-01-16T06:52:44;100019.41;;;3.61;58.55
19736;BME280;32064;49.310;8.646;2024-01-16T06:55:10;100022.00;;;3.61;59.55
19736;BME280;32064;49.310;8.646;2024-01-16T06:57:35;100022.94;;;3.60;59.66
19736;BME280;32064;49.310;8.646;2024-01-16T07:00:00;100018.50;;;3.62;59.80
19736;BME280;32064;49.310;8.646;2024-01-16T07:02:26;100017.50;;;3.65;58.83
19736;BME280;32064;49.310;8.646;2024-01-16T07:04:51;100021.66;;;3.69;59.64
19736;BME280;32064;49.310;8.646;2024-01-16T07:07:16;100023.03;;;3.76;59.31
19736;BME280;32064;49.310;8.646;2024-01-16T07:09:43;100024.59;;;3.80;59.83
19736;BME280;32064;49.310;8.646;2024-01-16T07:12:08;100017.53;;;3.82;58.88
19736;BME280;32064;49.310;8.646;2024-01-16T07:14:34;100018.41;;;3.82;58.96
19736;BME280;32064;49.310;8.646;2024-01-16T07:16:59;100020.88;;;3.67;60.08
19736;BME280;32064;49.310;8.646;2024-01-16T07:19:25;100028.19;;;3.77;59.11
19736;BME280;32064;49.310;8.646;2024-01-16T07:21:50;100022.81;;;3.80;58.35
19736;BME280;32064;49.310;8.646;2024-01-16T07:24:15;100026.47;;;3.76;59.95
19736;BME280;32064;49.310;8.646;2024-01-16T07:26:41;100022.97;;;3.77;59.70
19736;BME280;32064;49.310;8.646;2024-01-16T07:29:06;100022.97;;;3.77;59.01
19736;BME280;32064;49.310;8.646;2024-01-16T07:31:32;100026.56;;;3.75;59.95
19736;BME280;32064;49.310;8.646;2024-01-16T07:33:57;100022.00;;;3.80;59.05
19736;BME280;32064;49.310;8.646;2024-01-16T07:36:23;100018.47;;;3.81;58.36
19736;BME280;32064;49.310;8.646;2024-01-16T07:38:48;100019.91;;;3.87;59.64
19736;BME280;32064;49.310;8.646;2024-01-16T07:41:13;100021.31;;;3.94;58.06
19736;BME280;32064;49.310;8.646;2024-01-16T07:43:39;100023.97;;;3.92;58.50
19736;BME280;32064;49.310;8.646;2024-01-16T07:46:04;100022.47;;;3.88;58.87
19736;BME280;32064;49.310;8.646;2024-01-16T07:48:30;100021.38;;;3.92;58.36
19736;BME280;32064;49.310;8.646;2024-01-16T07:50:55;100014.41;;;3.93;59.47
19736;BME280;32064;49.310;8.646;2024-01-16T07:53:21;100020.25;;;3.98;58.88
19736;BME280;32064;49.310;8.646;2024-01-16T07:55:46;100022.63;;;4.02;59.66
19736;BME280;32064;49.310;8.646;2024-01-16T07:58:12;100022.69;;;4.01;59.99
19736;BME280;32064;49.310;8.646;2024-01-16T08:00:37;100025.28;;;4.01;59.55
19736;BME280;32064;49.310;8.646;2024-01-16T08:03:04;100033.19;;;3.99;59.11
19736;BME280;32064;49.310;8.646;2024-01-16T08:05:30;100030.34;;;4.04;60.04
19736;BME280;32064;49.310;8.646;2024-01-16T08:07:58;100027.91;;;4.01;58.49
19736;BME280;32064;49.310;8.646;2024-01-16T08:10:24;100030.50;;;4.01;59.32
19736;BME280;32064;49.310;8.646;2024-01-16T08:12:49;100041.44;;;4.08;59.63
19736;BME280;32064;49.310;8.646;2024-01-16T08:15:15;100038.78;;;4.09;58.80
19736;BME280;32064;49.310;8.646;2024-01-16T08:17:40;100038.72;;;4.11;59.66
19736;BME280;32064;49.310;8.646;2024-01-16T08:20:06;100040.91;;;4.18;58.93
19736;BME280;32064;49.310;8.646;2024-01-16T08:22:35;100040.47;;;4.27;59.67
19736;BME280;32064;49.310;8.646;2024-01-16T08:25:01;100044.38;;;4.36;58.46
19736;BME280;32064;49.310;8.646;2024-01-16T08:27:26;100047.28;;;4.47;58.58
19736;BME280;32064;49.310;8.646;2024-01-16T08:29:53;100055.53;;;4.56;58.97
19736;BME280;32064;49.310;8.646;2024-01-16T08:32:19;100056.13;;;4.61;58.53
19736;BME280;32064;49.310;8.646;2024-01-16T08:34:44;100047.25;;;4.65;59.83
19736;BME280;32064;49.310;8.646;2024-01-16T08:37:10;100060.28;;;4.65;58.73
19736;BME280;32064;49.310;8.646;2024-01-16T08:39:35;100066.13;;;4.70;58.01
19736;BME280;32064;49.310;8.646;2024-01-16T08:42:01;100073.16;;;4.68;59.39
19736;BME280;32064;49.310;8.646;2024-01-16T08:44:29;100072.63;;;4.79;59.11
19736;BME280;32064;49.310;8.646;2024-01-16T08:46:55;100078.34;;;4.85;59.30
19736;BME280;32064;49.310;8.646;2024-01-16T08:49:20;100076.50;;;4.87;59.84
19736;BME280;32064;49.310;8.646;2024-01-16T08:51:45;100078.69;;;4.95;58.10
19736;BME280;32064;49.310;8.646;2024-01-16T08:54:11;100080.22;;;4.99;59.72
19736;BME280;32064;49.310;8.646;2024-01-16T08:56:37;100082.16;;;4.95;59.07
19736;BME280;32064;49.310;8.646;2024-01-16T08:59:02;100088.28;;;4.94;59.51
19736;BME280;32064;49.310;8.646;2024-01-16T09:01:27;100090.56;;;5.01;59.09
19736;BME280;32064;49.310;8.646;2024-01-16T09:03:53;100091.16;;;5.06;59.83
19736;BME280;32064;49.310;8.646;2024-01-16T09:06:18;100101.75;;;5.03;57.93
19736;BME280;32064;49.310;8.646;2024-01-16T09:08:44;100098.00;;;5.08;57.71
19736;BME280;32064;49.310;8.646;2024-01-16T09:11:09;100096.16;;;5.10;58.91
19736;BME280;32064;49.310;8.646;2024-01-16T09:13:37;100096.00;;;5.13;57.94
19736;BME280;32064;49.310;8.646;2024-01-16T09:16:02;100098.00;;;5.08;58.48
19736;BME280;32064;49.310;8.646;2024-01-16T09:18:28;100099.59;;;5.11;59.03
19736;BME280;32064;49.310;8.646;2024-01-16T09:20:53;100098.50;;;5.15;59.30
19736;BME280;32064;49.310;8.646;2024-01-16T09:23:20;100102.09;;;5.30;57.76
19736;BME280;32064;49.310;8.646;2024-01-16T09:25:45;100107.13;;;5.33;58.39
19736;BME280;32064;49.310;8.646;2024-01-16T09:28:11;100108.47;;;5.40;59.23
19736;BME280;32064;49.310;8.646;2024-01-16T09:30:37;100110.34;;;5.54;58.71
19736;BME280;32064;49.310;8.646;2024-01-16T09:33:03;100119.97;;;5.69;58.47
19736;BME280;32064;49.310;8.646;2024-01-16T09:35:32;100117.63;;;5.80;58.91
19736;BME280;32064;49.310;8.646;2024-01-16T09:37:57;100118.94;;;5.88;57.20
19736;BME280;32064;49.310;8.646;2024-01-16T09:40:25;100109.72;;;5.98;58.69
19736;BME280;32064;49.310;8.646;2024-01-16T09:42:50;100109.28;;;5.90;58.16
19736;BME280;32064;49.310;8.646;2024-01-16T09:45:19;100099.53;;;5.93;57.97
19736;BME280;32064;49.310;8.646;2024-01-16T09:47:46;100089.91;;;6.10;58.04
19736;BME280;32064;49.310;8.646;2024-01-16T09:50:13;100097.38;;;6.16;56.64
19736;BME280;32064;49.310;8.646;2024-01-16T09:52:39;100086.00;;;6.17;57.09
19736;BME280;32064;49.310;8.646;2024-01-16T09:55:05;100091.03;;;6.20;56.59
19736;BME280;32064;49.310;8.646;2024-01-16T09:57:31;100089.63;;;6.14;56.54
19736;BME280;32064;49.310;8.646;2024-01-16T09:59:57;100083.06;;;6.23;57.12
19736;BME280;32064;49.310;8.646;2024-01-16T10:02:25;100082.97;;;6.08;56.69
19736;BME280;32064;49.310;8.646;2024-01-16T10:04:50;100086.63;;;6.06;57.73
19736;BME280;32064;49.310;8.646;2024-01-16T10:07:16;100078.75;;;6.22;57.91
19736;BME280;32064;49.310;8.646;2024-01-16T10:09:43;100087.00;;;6.14;56.98
19736;BME280;32064;49.310;8.646;2024-01-16T10:12:09;100089.72;;;6.28;57.82
19736;BME280;32064;49.310;8.646;2024-01-16T10:14:36;100087.66;;;6.34;56.32
19736;BME280;32064;49.310;8.646;2024-01-16T10:17:03;100087.41;;;6.22;56.87
19736;BME280;32064;49.310;8.646;2024-01-16T10:19:35;100088.84;;;6.28;56.46
19736;BME280;32064;49.310;8.646;2024-01-16T10:22:11;100086.47;;;6.39;56.41
19736;BME280;32064;49.310;8.646;2024-01-16T10:24:36;100088.44;;;6.50;57.30
19736;BME280;32064;49.310;8.646;2024-01-16T10:27:02;100087.06;;;6.59;56.11
19736;BME280;32064;49.310;8.646;2024-01-16T10:29:32;100074.41;;;6.67;56.43
19736;BME280;32064;49.310;8.646;2024-01-16T10:32:00;100068.59;;;6.62;57.23
19736;BME280;32064;49.310;8.646;2024-01-16T10:34:25;100075.53;;;6.63;56.07
19736;BME280;32064;49.310;8.646;2024-01-16T10:36:58;100071.03;;;6.65;55.78
19736;BME280;32064;49.310;8.646;2024-01-16T10:39:24;100069.16;;;6.67;55.94
19736;BME280;32064;49.310;8.646;2024-01-16T10:41:57;100060.22;;;6.71;56.92
19736;BME280;32064;49.310;8.646;2024-01-16T10:44:22;100057.63;;;6.85;56.46
19736;BME280;32064;49.310;8.646;2024-01-16T10:46:48;100058.53;;;6.84;55.80
19736;BME280;32064;49.310;8.646;2024-01-16T10:49:14;100050.88;;;6.95;56.38
19736;BME280;32064;49.310;8.646;2024-01-16T10:51:42;100057.44;;;7.03;56.08
19736;BME280;32064;49.310;8.646;2024-01-16T10:54:12;100051.91;;;7.07;55.45
19736;BME280;32064;49.310;8.646;2024-01-16T10:56:45;100037.25;;;7.05;56.22
19736;BME280;32064;49.310;8.646;2024-01-16T10:59:21;100035.50;;;7.05;55.50
19736;BME280;32064;49.310;8.646;2024-01-16T11:01:52;100026.31;;;7.12;56.04
19736;BME280;32064;49.310;8.646;2024-01-16T11:04:18;100028.75;;;7.15;56.11
19736;BME280;32064;49.310;8.646;2024-01-16T11:06:46;100020.69;;;7.18;55.71
19736;BME280;32064;49.310;8.646;2024-01-16T11:09:13;100018.38;;;7.28;55.50
19736;BME280;32064;49.310;8.646;2024-01-16T11:11:44;100019.47;;;7.24;55.68
19736;BME280;32064;49.310;8.646;2024-01-16T11:14:14;100020.34;;;7.25;54.75
19736;BME280;32064;49.310;8.646;2024-01-16T11:16:40;100013.22;;;7.27;54.71
19736;BME280;32064;49.310;8.646;2024-01-16T11:19:08;100010.56;;;7.41;54.44
19736;BME280;32064;49.310;8.646;2024-01-16T11:21:35;100017.69;;;7.39;54.32
19736;BME280;32064;49.310;8.646;2024-01-16T11:24:01;100018.97;;;7.46;54.78
19736;BME280;32064;49.310;8.646;2024-01-16T11:26:30;100008.50;;;7.46;54.76
19736;BME280;32064;49.310;8.646;2024-01-16T11:28:59;100011.41;;;7.56;55.10
19736;BME280;32064;49.310;8.646;2024-01-16T11:31:34;100005.59;;;7.51;54.59
19736;BME280;32064;49.310;8.646;2024-01-16T11:34:03;100004.53;;;7.68;54.25
19736;BME280;32064;49.310;8.646;2024-01-16T11:36:48;99993.31;;;7.65;54.32
19736;BME280;32064;49.310;8.646;2024-01-16T11:39:18;99993.84;;;7.71;54.50
19736;BME280;32064;49.310;8.646;2024-01-16T11:41:55;99992.16;;;7.70;54.50
19736;BME280;32064;49.310;8.646;2024-01-16T11:44:37;99986.72;;;7.73;54.30
19736;BME280;32064;49.310;8.646;2024-01-16T11:47:04;99994.84;;;7.82;54.26
19736;BME280;32064;49.310;8.646;2024-01-16T11:49:29;99988.91;;;7.93;54.56
19736;BME280;32064;49.310;8.646;2024-01-16T11:51:57;99971.63;;;8.03;53.73
19736;BME280;32064;49.310;8.646;2024-01-16T11:54:22;99968.06;;;8.04;54.05
19736;BME280;32064;49.310;8.646;2024-01-16T11:59:58;99961.78;;;8.07;53.42
19736;BME280;32064;49.310;8.646;2024-01-16T12:02:52;99963.63;;;7.92;53.88
19736;BME280;32064;49.310;8.646;2024-01-16T12:05:20;99957.38;;;8.07;53.56
19736;BME280;32064;49.310;8.646;2024-01-16T12:07:52;99954.66;;;8.09;53.31
19736;BME280;32064;49.310;8.646;2024-01-16T12:10:24;99948.91;;;8.17;53.64
19736;BME280;32064;49.310;8.646;2024-01-16T12:12:51;99948.69;;;8.20;52.73
19736;BME280;32064;49.310;8.646;2024-01-16T12:15:20;99938.50;;;8.15;53.14
19736;BME280;32064;49.310;8.646;2024-01-16T12:17:55;99936.53;;;8.19;52.68
19736;BME280;32064;49.310;8.646;2024-01-16T12:20:22;99934.75;;;8.19;52.53
19736;BME280;32064;49.310;8.646;2024-01-16T12:23:06;99934.03;;;8.04;52.34
19736;BME280;32064;49.310;8.646;2024-01-16T12:25:33;99925.75;;;8.10;52.47
19736;BME280;32064;49.310;8.646;2024-01-16T12:28:07;99923.09;;;7.98;51.59
19736;BME280;32064;49.310;8.646;2024-01-16T12:30:34;99922.06;;;7.87;52.35
19736;BME280;32064;49.310;8.646;2024-01-16T12:33:13;99919.09;;;7.79;52.32
19736;BME280;32064;49.310;8.646;2024-01-16T12:35:43;99909.47;;;7.80;51.59
19736;BME280;32064;49.310;8.646;2024-01-16T12:38:13;99901.59;;;7.80;52.30
19736;BME280;32064;49.310;8.646;2024-01-16T12:40:45;99910.41;;;7.79;52.60
19736;BME280;32064;49.310;8.646;2024-01-16T12:43:12;99912.78;;;7.69;52.41
19736;BME280;32064;49.310;8.646;2024-01-16T12:45:38;99906.72;;;7.69;51.70
19736;BME280;32064;49.310;8.646;2024-01-16T12:48:04;99902.50;;;7.66;51.92
19736;BME280;32064;49.310;8.646;2024-01-16T12:50:31;99895.16;;;7.58;51.72
19736;BME280;32064;49.310;8.646;2024-01-16T12:53:08;99892.38;;;7.61;52.17
19736;BME280;32064;49.310;8.646;2024-01-16T12:55:35;99896.44;;;7.65;51.53
19736;BME280;32064;49.310;8.646;2024-01-16T13:00:39;99875.81;;;7.61;52.39
19736;BME280;32064;49.310;8.646;2024-01-16T13:03:05;99879.66;;;7.55;51.13
19736;BME280;32064;49.310;8.646;2024-01-16T13:05:31;99878.81;;;7.42;52.50
19736;BME280;32064;49.310;8.646;2024-01-16T13:08:04;99871.47;;;7.47;51.16